createdAt,value
2023-06-04T00:03:17.476Z,15.50
2023-06-04T00:08:14.811Z,15.60
2023-06-04T00:13:12.179Z,15.40
2023-06-04T00:23:20.746Z,15.00
2023-06-04T00:28:17.975Z,14.90
2023-06-04T00:33:15.256Z,14.80
2023-06-04T00:38:12.845Z,14.80
2023-06-04T00:43:10.370Z,14.90
2023-06-04T00:48:08.111Z,15.00
2023-06-04T00:53:06.315Z,15.00
2023-06-04T00:58:05.346Z,14.70
2023-06-04T01:03:07.381Z,14.70
2023-06-04T01:08:06.981Z,14.90
2023-06-04T01:13:04.186Z,14.80
2023-06-04T01:18:04.560Z,14.50
2023-06-04T01:23:14.546Z,14.30
2023-06-04T01:28:13.204Z,14.50
2023-06-04T01:33:15.160Z,14.10
2023-06-04T01:38:12.501Z,14.10
2023-06-04T01:43:09.935Z,13.80
2023-06-04T01:48:07.764Z,13.70
2023-06-04T01:53:05.221Z,13.90
2023-06-04T01:58:02.666Z,14.10
2023-06-04T02:03:01.003Z,13.90
2023-06-04T02:07:58.562Z,14.00
2023-06-04T02:12:56.963Z,14.00
2023-06-04T02:18:14.289Z,14.10
2023-06-04T02:23:13.376Z,14.10
2023-06-04T02:28:13.810Z,14.00
2023-06-04T02:33:11.492Z,13.90
2023-06-04T02:38:09.052Z,13.60
2023-06-04T02:43:06.202Z,13.90
2023-06-04T02:48:03.702Z,13.50
2023-06-04T02:53:01.150Z,13.50
2023-06-04T02:57:58.998Z,13.40
2023-06-04T03:03:03.018Z,13.20
2023-06-04T03:08:03.764Z,13.30
2023-06-04T03:13:01.466Z,13.30
2023-06-04T03:17:58.808Z,13.20
2023-06-04T03:22:56.046Z,13.30
2023-06-04T03:27:53.328Z,13.30
2023-06-04T03:32:50.968Z,13.20
2023-06-04T03:37:48.911Z,13.20
2023-06-04T03:42:50.030Z,13.10
2023-06-04T03:47:49.988Z,12.90
2023-06-04T03:52:48.082Z,13.00
2023-06-04T03:57:46.994Z,13.20
2023-06-04T04:02:45.586Z,13.40
2023-06-04T04:07:44.329Z,13.60
2023-06-04T04:12:41.982Z,13.60
2023-06-04T04:17:42.276Z,13.70
2023-06-04T04:22:43.532Z,13.60
2023-06-04T04:27:42.121Z,13.50
2023-06-04T04:32:40.176Z,13.60
2023-06-04T04:37:39.891Z,13.40
2023-06-04T04:42:37.926Z,13.20
2023-06-04T04:47:35.177Z,13.40
2023-06-04T04:52:34.206Z,13.60
2023-06-04T04:57:31.640Z,13.90
2023-06-04T05:02:29.098Z,14.10
2023-06-04T05:07:27.257Z,14.10
2023-06-04T05:12:26.814Z,14.40
2023-06-04T05:17:31.691Z,14.60
2023-06-04T05:22:30.099Z,14.70
2023-06-04T05:27:28.740Z,14.80
2023-06-04T05:32:29.745Z,15.10
2023-06-04T05:37:30.367Z,15.40
2023-06-04T05:42:27.528Z,15.70
2023-06-04T05:47:25.413Z,15.90
2023-06-04T05:52:22.783Z,16.10
2023-06-04T05:57:21.164Z,16.10
2023-06-04T06:02:18.573Z,16.30
2023-06-04T06:07:15.860Z,16.50
2023-06-04T06:12:13.093Z,16.60
2023-06-04T06:17:10.258Z,17.00
2023-06-04T06:22:07.543Z,17.20
2023-06-04T06:27:05.062Z,17.10
2023-06-04T06:32:02.481Z,17.10
2023-06-04T06:36:59.738Z,17.30
2023-06-04T06:41:56.993Z,17.20
2023-06-04T06:46:54.307Z,17.40
2023-06-04T06:51:51.941Z,17.50
2023-06-04T06:56:54.637Z,17.50
2023-06-04T07:01:52.110Z,17.40
2023-06-04T07:06:49.478Z,17.50
2023-06-04T07:11:47.027Z,17.90
2023-06-04T07:16:47.542Z,18.30
2023-06-04T07:21:44.876Z,18.70
2023-06-04T07:26:42.168Z,19.30
2023-06-04T07:31:39.505Z,19.60
2023-06-04T07:36:39.322Z,19.70
2023-06-04T07:41:36.540Z,19.60
2023-06-04T07:46:33.768Z,19.70
2023-06-04T07:51:31.104Z,19.90
2023-06-04T07:56:28.340Z,20.20
2023-06-04T08:01:25.935Z,20.50
2023-06-04T08:06:26.910Z,20.70
2023-06-04T08:11:26.024Z,20.90
2023-06-04T08:16:23.777Z,20.30
2023-06-04T08:21:28.550Z,20.00
2023-06-04T08:26:28.125Z,19.60
2023-06-04T08:31:25.611Z,19.20
2023-06-04T08:36:22.874Z,19.20
